Wetterstation Vordersexau
Wetterdaten: Woche 12.02.18 - 18.02.18 (KW7)
Datum Zeit Temp. A. Feuchte A. Luftdruck Regen Wind Richtung Taupunkt Windchill Windben
12.02.2018 00:00 2,4 C 85 % 1008,5 hPa 0,0 l/m 0,0 km/h SO 0,1 C 2,4 C 0,0 km/h
12.02.2018 01:00 1,6 C 86 % 1008,7 hPa 0,0 l/m 0,0 km/h SO -0,5 C 1,6 C 0,0 km/h
12.02.2018 02:00 1,6 C 86 % 1009,2 hPa 0,0 l/m 0,0 km/h SO -0,5 C 1,6 C 0,0 km/h
12.02.2018 03:00 1,5 C 86 % 1009,5 hPa 0,0 l/m 0,0 km/h SO -0,6 C 1,5 C 0,0 km/h
12.02.2018 04:00 0,9 C 86 % 1009,6 hPa 0,0 l/m 0,0 km/h SO -1,2 C 0,9 C 0,0 km/h
12.02.2018 05:00 0,4 C 86 % 1010,0 hPa 0,0 l/m 0,0 km/h W -1,7 C 0,4 C 0,0 km/h
12.02.2018 06:00 0,8 C 85 % 1010,8 hPa 0,0 l/m 0,0 km/h W -1,4 C 0,8 C 0,0 km/h
12.02.2018 07:00 0,2 C 86 % 1012,0 hPa 0,0 l/m 0,0 km/h S-SO -1,9 C 0,2 C 0,0 km/h
12.02.2018 08:00 0,6 C 86 % 1012,8 hPa 0,0 l/m 0,0 km/h SW -1,5 C 0,6 C 0,0 km/h
12.02.2018 09:00 2,3 C 86 % 1013,5 hPa 0,0 l/m 1,9 km/h N-NW 0,2 C 2,3 C 1,1 km/h
12.02.2018 10:00 3,3 C 80 % 1014,3 hPa 0,5 l/m 0,0 km/h W 0,2 C 3,3 C 0,0 km/h
12.02.2018 11:00 3,6 C 76 % 1014,7 hPa 0,0 l/m 0,0 km/h N-NW -0,2 C 3,6 C 0,0 km/h
12.02.2018 12:00 3,5 C 73 % 1014,8 hPa 0,0 l/m 6,5 km/h N -0,9 C 3,4 C 3,6 km/h
12.02.2018 13:00 4,1 C 69 % 1014,5 hPa 0,5 l/m 0,0 km/h N-NO -1,1 C 4,1 C 0,0 km/h
12.02.2018 14:00 4,9 C 65 % 1014,7 hPa 0,0 l/m 0,0 km/h N -1,1 C 4,9 C 0,0 km/h
12.02.2018 15:00 5,2 C 61 % 1014,8 hPa 0,0 l/m 0,0 km/h N -1,7 C 5,2 C 0,0 km/h
12.02.2018 16:00 8,7 C 55 % 1015,1 hPa 0,0 l/m 0,0 km/h N-NW 0,2 C 8,7 C 0,0 km/h
12.02.2018 17:00 2,6 C 63 % 1015,5 hPa 0,0 l/m 0,0 km/h N-NW -3,7 C 2,6 C 0,0 km/h
12.02.2018 18:00 0,2 C 71 % 1016,1 hPa 0,0 l/m 0,0 km/h N-NW -4,4 C 0,2 C 0,0 km/h
12.02.2018 19:00 -1,3 C 76 % 1016,3 hPa 0,0 l/m 0,0 km/h O-NO -5,0 C -1,3 C 0,0 km/h
12.02.2018 20:00 -2,7 C 81 % 1016,5 hPa 0,0 l/m 0,0 km/h O -5,5 C -2,7 C 0,0 km/h
12.02.2018 21:00 -2,7 C 83 % 1016,9 hPa 0,0 l/m 0,0 km/h SO -5,2 C -2,7 C 0,0 km/h
12.02.2018 22:00 -3,3 C 84 % 1016,8 hPa 0,0 l/m 0,0 km/h O-SO -5,6 C -3,3 C 0,0 km/h
12.02.2018 23:00 -3,6 C 85 % 1016,9 hPa 0,0 l/m 0,0 km/h O-SO -5,7 C -3,6 C 0,0 km/h
13.02.2018 00:00 -3,6 C 86 % 1016,6 hPa 0,0 l/m 0,0 km/h O-SO -5,6 C -3,6 C 0,0 km/h
13.02.2018 01:00 -4,1 C 86 % 1016,7 hPa 0,0 l/m 0,0 km/h O-SO -6,1 C -4,1 C 0,0 km/h
13.02.2018 02:00 -4,3 C 86 % 1016,5 hPa 0,0 l/m 0,0 km/h O-SO -6,3 C -4,3 C 0,0 km/h
13.02.2018 03:00 -3,3 C 86 % 1016,0 hPa 0,0 l/m 8,4 km/h O-SO -5,3 C -5,5 C 4,7 km/h
13.02.2018 04:00 -3,7 C 86 % 1015,6 hPa 0,0 l/m 0,0 km/h O-SO -5,7 C -3,7 C 0,0 km/h
13.02.2018 05:00 -4,2 C 86 % 1015,2 hPa 0,0 l/m 0,0 km/h O-SO -6,2 C -4,2 C 0,0 km/h
13.02.2018 06:00 -4,9 C 86 % 1015,0 hPa 0,0 l/m 16,8 km/h O-SO -6,9 C -14,1 C 9,4 km/h
13.02.2018 07:00 -5,1 C 87 % 1014,8 hPa 0,0 l/m 0,0 km/h O-SO -6,9 C -5,1 C 0,0 km/h
13.02.2018 08:00 -1,7 C 86 % 1014,2 hPa 0,0 l/m 0,0 km/h SO -3,7 C -1,7 C 0,0 km/h
13.02.2018 09:00 3,5 C 74 % 1013,5 hPa 0,0 l/m 14,9 km/h SO -0,7 C -2,7 C 8,3 km/h
13.02.2018 10:00 8,6 C 62 % 1012,8 hPa 0,0 l/m 0,0 km/h SO 1,7 C 8,6 C 0,0 km/h
13.02.2018 11:00 9,4 C 50 % 1011,9 hPa 0,0 l/m 20,7 km/h O-SO -0,5 C 2,3 C 11,5 km/h
13.02.2018 12:00 6,5 C 51 % 1010,7 hPa 0,0 l/m 20,1 km/h S-SO -2,9 C -1,3 C 11,2 km/h
13.02.2018 13:00 7,9 C 47 % 1009,6 hPa 0,0 l/m 21,4 km/h S-SO -2,7 C 0,1 C 11,9 km/h
13.02.2018 14:00 9,1 C 42 % 1008,7 hPa 0,0 l/m 18,8 km/h S-SO -3,1 C 2,5 C 10,4 km/h
13.02.2018 15:00 8,7 C 41 % 1008,0 hPa 0,0 l/m 21,4 km/h O-SO -3,8 C 1,1 C 11,9 km/h
13.02.2018 16:00 7,8 C 44 % 1008,0 hPa 15,0 l/m 16,2 km/h O-SO -3,7 C 1,9 C 9,0 km/h
13.02.2018 17:00 1,6 C 56 % 1008,1 hPa 0,0 l/m 0,0 km/h O-SO -6,2 C 1,6 C 0,0 km/h
13.02.2018 18:00 0,7 C 60 % 1008,0 hPa 0,0 l/m 24,6 km/h S-SO -6,2 C -10,6 C 13,7 km/h
13.02.2018 19:00 0,2 C 62 % 1008,3 hPa 0,0 l/m 24,0 km/h O-SO -6,2 C -11,1 C 13,3 km/h
13.02.2018 20:00 0,1 C 61 % 1008,3 hPa 0,0 l/m 22,0 km/h SO -6,5 C -10,4 C 12,2 km/h
13.02.2018 21:00 -1,9 C 67 % 1008,3 hPa 0,0 l/m 11,0 km/h N-NO -7,2 C -6,4 C 6,1 km/h
13.02.2018 22:00 -3,1 C 71 % 1008,5 hPa 0,0 l/m 0,0 km/h NO -7,6 C -3,1 C 0,0 km/h
13.02.2018 23:00 -4,1 C 75 % 1008,6 hPa 0,0 l/m 0,0 km/h NO -7,9 C -4,1 C 0,0 km/h
14.02.2018 00:00 -3,6 C 76 % 1009,0 hPa 0,0 l/m 0,0 km/h NO -7,2 C -3,6 C 0,0 km/h
14.02.2018 01:00 -3,7 C 77 % 1009,6 hPa 0,0 l/m 4,5 km/h O-NO -7,1 C -3,7 C 2,5 km/h
14.02.2018 02:00 -4,4 C 79 % 1009,9 hPa 0,0 l/m 0,0 km/h O-SO -7,5 C -4,4 C 0,0 km/h
14.02.2018 03:00 -4,6 C 80 % 1010,2 hPa 0,0 l/m 6,5 km/h O-SO -7,5 C -4,7 C 3,6 km/h
14.02.2018 04:00 -4,7 C 80 % 1010,7 hPa 0,0 l/m 0,0 km/h O -7,6 C -4,7 C 0,0 km/h
14.02.2018 05:00 -4,9 C 80 % 1011,4 hPa 0,0 l/m 6,5 km/h O -7,8 C -5,0 C 3,6 km/h
14.02.2018 06:00 -5,4 C 82 % 1012,3 hPa 0,0 l/m 4,5 km/h SO -8,0 C -5,4 C 2,5 km/h
14.02.2018 07:00 -5,4 C 82 % 1013,1 hPa 0,0 l/m 20,1 km/h SO -8,0 C -16,7 C 11,2 km/h
14.02.2018 08:00 -2,4 C 80 % 1013,5 hPa 0,0 l/m 24,6 km/h O -5,4 C -14,8 C 13,7 km/h
14.02.2018 09:00 0,8 C 71 % 1013,9 hPa 0,0 l/m 6,5 km/h O-SO -3,8 C 0,7 C 3,6 km/h
14.02.2018 10:00 6,2 C 60 % 1014,4 hPa 0,0 l/m 5,8 km/h W-SW -1,0 C 6,2 C 3,2 km/h
14.02.2018 11:00 8,8 C 47 % 1014,8 hPa 0,0 l/m 14,9 km/h SW -1,9 C 3,7 C 8,3 km/h
14.02.2018 12:00 9,2 C 46 % 1014,5 hPa 0,0 l/m 8,4 km/h W-SW -1,8 C 7,7 C 4,7 km/h
14.02.2018 13:00 9,5 C 45 % 1014,1 hPa 0,0 l/m 2,6 km/h W-SW -1,8 C 9,5 C 1,4 km/h
14.02.2018 14:00 12,5 C 41 % 1013,7 hPa 0,0 l/m 0,0 km/h W -0,4 C 12,5 C 0,0 km/h
14.02.2018 15:00 13,3 C 37 % 1013,8 hPa 0,0 l/m 3,2 km/h W -1,1 C 13,3 C 1,8 km/h
14.02.2018 16:00 10,7 C 40 % 1014,0 hPa 0,0 l/m 0,0 km/h W -2,3 C 10,7 C 0,0 km/h
14.02.2018 17:00 2,5 C 54 % 1014,3 hPa 0,0 l/m 0,0 km/h NW -5,8 C 2,5 C 0,0 km/h
14.02.2018 18:00 -0,1 C 67 % 1014,7 hPa 0,0 l/m 0,0 km/h N -5,5 C -0,1 C 0,0 km/h
14.02.2018 19:00 -1,4 C 74 % 1014,7 hPa 0,0 l/m 0,0 km/h O-SO -5,4 C -1,4 C 0,0 km/h
14.02.2018 20:00 -1,9 C 76 % 1014,7 hPa 0,0 l/m 0,0 km/h O-NO -5,6 C -1,9 C 0,0 km/h
14.02.2018 21:00 -2,2 C 80 % 1014,5 hPa 0,0 l/m 0,0 km/h NO -5,2 C -2,2 C 0,0 km/h
14.02.2018 22:00 -2,2 C 80 % 1014,4 hPa 0,0 l/m 0,0 km/h NO -5,2 C -2,2 C 0,0 km/h
14.02.2018 23:00 -2,8 C 81 % 1014,0 hPa 0,0 l/m 0,0 km/h NO -5,6 C -2,8 C 0,0 km/h
15.02.2018 00:00 -2,6 C 82 % 1013,7 hPa 0,0 l/m 0,0 km/h NO -5,2 C -2,6 C 0,0 km/h
15.02.2018 01:00 -1,8 C 82 % 1013,2 hPa 0,0 l/m 0,0 km/h O-SO -4,5 C -1,8 C 0,0 km/h
15.02.2018 02:00 -1,7 C 82 % 1013,7 hPa 0,0 l/m 0,0 km/h O-SO -4,4 C -1,7 C 0,0 km/h
15.02.2018 03:00 -1,6 C 82 % 1013,1 hPa 0,0 l/m 0,0 km/h O-SO -4,3 C -1,6 C 0,0 km/h
15.02.2018 04:00 -1,1 C 82 % 1013,2 hPa 0,0 l/m 0,0 km/h S -3,8 C -1,1 C 0,0 km/h
15.02.2018 05:00 -0,3 C 81 % 1013,5 hPa 0,0 l/m 0,0 km/h O-NO -3,2 C -0,3 C 0,0 km/h
15.02.2018 06:00 0,4 C 82 % 1013,0 hPa 0,0 l/m 0,0 km/h SO -2,3 C 0,4 C 0,0 km/h
15.02.2018 07:00 0,8 C 85 % 1012,8 hPa 0,5 l/m 0,0 km/h SO -1,4 C 0,8 C 0,0 km/h
15.02.2018 08:00 0,9 C 86 % 1012,4 hPa 1,0 l/m 0,0 km/h SO -1,2 C 0,9 C 0,0 km/h
15.02.2018 09:00 1,8 C 86 % 1013,0 hPa 0,0 l/m 0,0 km/h SO -0,3 C 1,8 C 0,0 km/h
15.02.2018 10:00 2,8 C 86 % 1013,3 hPa 0,0 l/m 0,0 km/h N-NO 0,7 C 2,8 C 0,0 km/h
15.02.2018 11:00 4,2 C 85 % 1013,8 hPa 0,0 l/m 0,0 km/h SW 1,9 C 4,2 C 0,0 km/h
15.02.2018 12:00 5,4 C 86 % 1014,3 hPa 0,5 l/m 0,0 km/h S-SW 3,3 C 5,4 C 0,0 km/h
15.02.2018 13:00 5,9 C 85 % 1014,1 hPa 0,5 l/m 20,1 km/h SW 3,6 C -2,0 C 11,2 km/h
15.02.2018 14:00 6,5 C 85 % 1014,2 hPa 0,0 l/m 12,3 km/h W-SW 4,2 C 2,3 C 6,8 km/h
15.02.2018 15:00 7,1 C 85 % 1014,4 hPa 0,0 l/m 12,3 km/h SW 4,8 C 3,0 C 6,8 km/h
15.02.2018 16:00 6,9 C 84 % 1014,5 hPa 0,5 l/m 0,0 km/h N-NO 4,4 C 6,9 C 0,0 km/h
15.02.2018 17:00 6,8 C 84 % 1015,0 hPa 0,5 l/m 0,0 km/h N-NO 4,3 C 6,8 C 0,0 km/h
15.02.2018 18:00 6,8 C 82 % 1015,0 hPa 0,0 l/m 0,0 km/h NO 3,9 C 6,8 C 0,0 km/h
15.02.2018 19:00 6,9 C 80 % 1015,3 hPa 0,0 l/m 10,4 km/h NO 3,7 C 3,9 C 5,8 km/h
15.02.2018 20:00 7,3 C 79 % 1014,8 hPa 0,0 l/m 0,0 km/h N-NO 3,9 C 7,3 C 0,0 km/h
15.02.2018 21:00 7,9 C 78 % 1014,7 hPa 1,0 l/m 0,0 km/h N-NW 4,3 C 7,9 C 0,0 km/h
15.02.2018 22:00 8,3 C 76 % 1015,6 hPa 0,5 l/m 0,0 km/h N 4,3 C 8,3 C 0,0 km/h
15.02.2018 23:00 7,8 C 75 % 1016,3 hPa 2,6 l/m 2,6 km/h N 3,7 C 7,8 C 1,4 km/h
16.02.2018 00:00 7,2 C 75 % 1017,4 hPa 1,0 l/m 0,0 km/h N 3,1 C 7,2 C 0,0 km/h
16.02.2018 01:00 6,5 C 77 % 1018,3 hPa 1,0 l/m 1,9 km/h N-NO 2,8 C 6,5 C 1,1 km/h
16.02.2018 02:00 5,9 C 81 % 1019,0 hPa 0,5 l/m 0,0 km/h N-NO 2,9 C 5,9 C 0,0 km/h
16.02.2018 03:00 5,3 C 81 % 1019,6 hPa 0,5 l/m 0,0 km/h N-NO 2,3 C 5,3 C 0,0 km/h
16.02.2018 04:00 5,1 C 81 % 1019,9 hPa 0,0 l/m 0,0 km/h N-NO 2,1 C 5,1 C 0,0 km/h
16.02.2018 05:00 4,9 C 81 % 1020,7 hPa 0,0 l/m 0,0 km/h NO 1,9 C 4,9 C 0,0 km/h
16.02.2018 06:00 4,9 C 80 % 1021,3 hPa 0,0 l/m 0,0 km/h NO 1,7 C 4,9 C 0,0 km/h
16.02.2018 07:00 4,7 C 80 % 1022,3 hPa 0,5 l/m 0,0 km/h O-SO 1,6 C 4,7 C 0,0 km/h
16.02.2018 08:00 5,3 C 79 % 1022,5 hPa 0,0 l/m 0,0 km/h O-SO 2,0 C 5,3 C 0,0 km/h
16.02.2018 09:00 7,3 C 75 % 1023,2 hPa 0,0 l/m 0,0 km/h N-NO 3,2 C 7,3 C 0,0 km/h
16.02.2018 10:00 9,2 C 85 % 1023,7 hPa 0,0 l/m 0,0 km/h W-SW 6,8 C 9,2 C 0,0 km/h
16.02.2018 11:00 10,6 C 80 % 1023,9 hPa 0,0 l/m 0,0 km/h W-NW 7,3 C 10,6 C 0,0 km/h
16.02.2018 12:00 11,8 C 73 % 1023,7 hPa 0,0 l/m 0,0 km/h O-NO 7,1 C 11,8 C 0,0 km/h
16.02.2018 13:00 14,3 C 61 % 1023,3 hPa 0,0 l/m 0,0 km/h W 6,9 C 14,3 C 0,0 km/h
16.02.2018 14:00 12,9 C 60 % 1022,7 hPa 0,0 l/m 0,0 km/h W-NW 5,3 C 12,9 C 0,0 km/h
16.02.2018 15:00 15,3 C 55 % 1022,5 hPa 0,0 l/m 0,0 km/h N-NO 6,3 C 15,3 C 0,0 km/h
16.02.2018 16:00 10,3 C 65 % 1022,5 hPa 0,0 l/m 0,0 km/h N-NO 4,0 C 10,3 C 0,0 km/h
16.02.2018 17:00 6,8 C 75 % 1022,4 hPa 0,0 l/m 0,0 km/h N-NO 2,7 C 6,8 C 0,0 km/h
16.02.2018 18:00 6,1 C 81 % 1022,8 hPa 0,0 l/m 0,0 km/h O-SO 3,1 C 6,1 C 0,0 km/h
16.02.2018 19:00 4,9 C 84 % 1022,1 hPa 0,0 l/m 0,0 km/h NO 2,4 C 4,9 C 0,0 km/h
16.02.2018 20:00 5,2 C 85 % 1021,7 hPa 0,0 l/m 0,0 km/h NO 2,9 C 5,2 C 0,0 km/h
16.02.2018 21:00 3,6 C 85 % 1021,4 hPa 0,0 l/m 0,0 km/h O-NO 1,3 C 3,6 C 0,0 km/h
16.02.2018 22:00 2,3 C 86 % 1021,2 hPa 0,0 l/m 0,0 km/h O-SO 0,2 C 2,3 C 0,0 km/h
16.02.2018 23:00 2,1 C 86 % 1021,2 hPa 0,0 l/m 8,4 km/h N-NO 0,0 C 0,2 C 4,7 km/h
17.02.2018 00:00 1,4 C 86 % 1020,2 hPa 0,0 l/m 0,0 km/h N-NO -0,7 C 1,4 C 0,0 km/h
17.02.2018 01:00 2,1 C 85 % 1019,3 hPa 0,0 l/m 1,9 km/h NO -0,2 C 2,1 C 1,1 km/h
17.02.2018 02:00 2,1 C 86 % 1018,1 hPa 0,0 l/m 0,0 km/h SW 0,0 C 2,1 C 0,0 km/h
17.02.2018 03:00 1,8 C 86 % 1017,4 hPa 0,0 l/m 0,0 km/h W-SW -0,3 C 1,8 C 0,0 km/h
17.02.2018 04:00 1,8 C 85 % 1016,0 hPa 0,0 l/m 0,0 km/h W-SW -0,4 C 1,8 C 0,0 km/h
17.02.2018 05:00 1,6 C 84 % 1015,8 hPa 0,0 l/m 0,0 km/h SW -0,8 C 1,6 C 0,0 km/h
17.02.2018 06:00 1,6 C 84 % 1014,0 hPa 1,6 l/m 0,0 km/h SO -0,8 C 1,6 C 0,0 km/h
17.02.2018 07:00 1,8 C 82 % 1013,8 hPa 2,6 l/m 0,0 km/h S-SW -0,9 C 1,8 C 0,0 km/h
17.02.2018 08:00 2,1 C 81 % 1013,9 hPa 2,1 l/m 0,0 km/h S-SW -0,8 C 2,1 C 0,0 km/h
17.02.2018 09:00 2,4 C 79 % 1012,6 hPa 2,1 l/m 0,0 km/h W-SW -0,9 C 2,4 C 0,0 km/h
17.02.2018 10:00 2,5 C 78 % 1013,0 hPa 1,0 l/m 0,0 km/h SW -0,9 C 2,5 C 0,0 km/h
17.02.2018 11:00 2,6 C 77 % 1013,4 hPa 1,6 l/m 0,0 km/h W-SW -1,0 C 2,6 C 0,0 km/h
17.02.2018 12:00 2,6 C 77 % 1013,5 hPa 1,0 l/m 6,5 km/h SW -1,0 C 2,5 C 3,6 km/h
17.02.2018 13:00 1,9 C 77 % 1014,0 hPa 0,0 l/m 0,0 km/h NW -1,7 C 1,9 C 0,0 km/h
17.02.2018 14:00 1,5 C 78 % 1014,4 hPa 0,5 l/m 0,0 km/h W -1,9 C 1,5 C 0,0 km/h
17.02.2018 15:00 1,2 C 78 % 1015,2 hPa 0,5 l/m 0,0 km/h W -2,2 C 1,2 C 0,0 km/h
17.02.2018 16:00 0,7 C 79 % 1016,3 hPa 0,5 l/m 0,0 km/h W -2,5 C 0,7 C 0,0 km/h
17.02.2018 17:00 0,2 C 79 % 1017,4 hPa 0,0 l/m 0,0 km/h W -3,0 C 0,2 C 0,0 km/h
17.02.2018 18:00 0,1 C 79 % 1018,3 hPa 0,0 l/m 0,0 km/h W -3,1 C 0,1 C 0,0 km/h
17.02.2018 19:00 0,1 C 79 % 1019,3 hPa 0,0 l/m 0,0 km/h W -3,1 C 0,1 C 0,0 km/h
17.02.2018 20:00 0,1 C 78 % 1019,5 hPa 0,0 l/m 0,0 km/h W -3,3 C 0,1 C 0,0 km/h
17.02.2018 21:00 0,1 C 78 % 1020,2 hPa 0,0 l/m 0,0 km/h W -3,3 C 0,1 C 0,0 km/h
17.02.2018 22:00 0,1 C 77 % 1021,2 hPa 0,0 l/m 0,0 km/h W -3,4 C 0,1 C 0,0 km/h
17.02.2018 23:00 0,1 C 77 % 1021,8 hPa 0,0 l/m 0,0 km/h W -3,4 C 0,1 C 0,0 km/h
18.02.2018 00:00 0,2 C 77 % 1022,4 hPa 0,0 l/m 0,0 km/h W -3,3 C 0,2 C 0,0 km/h
18.02.2018 01:00 0,1 C 77 % 1022,6 hPa 0,0 l/m 0,0 km/h W -3,4 C 0,1 C 0,0 km/h
18.02.2018 02:00 0,1 C 77 % 1022,7 hPa 0,0 l/m 0,0 km/h W -3,4 C 0,1 C 0,0 km/h
18.02.2018 03:00 0,1 C 77 % 1022,8 hPa 0,0 l/m 0,0 km/h W -3,4 C 0,1 C 0,0 km/h
18.02.2018 04:00 -0,1 C 76 % 1023,0 hPa 0,0 l/m 0,0 km/h W -3,8 C -0,1 C 0,0 km/h
18.02.2018 05:00 -0,1 C 77 % 1023,0 hPa 0,0 l/m 0,0 km/h W -3,6 C -0,1 C 0,0 km/h
18.02.2018 06:00 -0,2 C 76 % 1023,4 hPa 0,0 l/m 0,0 km/h W -3,9 C -0,2 C 0,0 km/h
18.02.2018 07:00 -0,2 C 76 % 1023,7 hPa 0,0 l/m 0,0 km/h W -3,9 C -0,2 C 0,0 km/h
18.02.2018 08:00 0,2 C 75 % 1023,7 hPa 0,0 l/m 0,0 km/h W -3,7 C 0,2 C 0,0 km/h
18.02.2018 09:00 1,6 C 73 % 1023,7 hPa 0,0 l/m 0,0 km/h W -2,7 C 1,6 C 0,0 km/h
18.02.2018 10:00 2,4 C 85 % 1023,5 hPa 0,5 l/m 0,0 km/h W-SW 0,1 C 2,4 C 0,0 km/h
18.02.2018 11:00 2,4 C 86 % 1023,4 hPa 0,5 l/m 0,0 km/h W-SW 0,3 C 2,4 C 0,0 km/h
18.02.2018 12:00 3,2 C 86 % 1022,9 hPa 1,0 l/m 0,0 km/h SW 1,1 C 3,2 C 0,0 km/h
18.02.2018 13:00 2,9 C 86 % 1022,4 hPa 0,5 l/m 0,0 km/h SW 0,8 C 2,9 C 0,0 km/h
18.02.2018 14:00 2,6 C 86 % 1022,1 hPa 0,0 l/m 0,0 km/h SW 0,5 C 2,6 C 0,0 km/h
18.02.2018 15:00 3,6 C 86 % 1021,7 hPa 0,0 l/m 0,0 km/h S 1,5 C 3,6 C 0,0 km/h
18.02.2018 16:00 2,9 C 86 % 1021,7 hPa 0,0 l/m 0,0 km/h W 0,8 C 2,9 C 0,0 km/h
18.02.2018 17:00 1,8 C 86 % 1021,6 hPa 0,0 l/m 0,0 km/h W -0,3 C 1,8 C 0,0 km/h
18.02.2018 18:00 1,0 C 86 % 1021,5 hPa 0,0 l/m 0,0 km/h W -1,1 C 1,0 C 0,0 km/h
18.02.2018 19:00 0,8 C 85 % 1021,3 hPa 0,0 l/m 0,0 km/h W -1,4 C 0,8 C 0,0 km/h
18.02.2018 20:00 0,6 C 85 % 1021,0 hPa 0,0 l/m 0,0 km/h W -1,6 C 0,6 C 0,0 km/h
18.02.2018 21:00 0,4 C 84 % 1020,4 hPa 0,0 l/m 0,0 km/h SO -2,0 C 0,4 C 0,0 km/h
18.02.2018 22:00 0,3 C 87 % 1019,9 hPa 0,0 l/m 18,8 km/h N -1,6 C -8,7 C 10,4 km/h
18.02.2018 23:00 -0,1 C 86 % 1019,6 hPa 0,0 l/m 0,0 km/h SO -2,2 C -0,1 C 0,0 km/h
Min-Datum _ 14.02.18 14.02.18 13.02.18 - 12.02.18 - 14.02.18 14.02.18 12.02.18
_ Min-Zeit 06:53 15:53 15:53 - 00:53 - 06:53 07:53 00:53
Minimum _ -5,4 C 37 % 1008,0 hPa - 0,0 km/h - -8,0 C -16,7 C 0,0 km/h
Max-Datum _ 16.02.18 13.02.18 16.02.18 13.02.18 13.02.18 - 16.02.18 16.02.18 13.02.18
_ Max-Zeit 15:53 07:53 11:53 16:53 18:53 - 11:53 15:53 18:53
Maximum _ 15,3 C 87 % 1023,9 hPa 15,0 l/m 24,6 km/h
S-SO
- 7,3 C 15,3 C 13,7 km/h
S-SO
Durchschnitt _ 2,4 C 77 % 1016,1 hPa #43,5 l/m 2,7 km/h W -1,6 C 1,4 C 1,5 km/h
www.sexauwetter.de